createdAt,value
2019-06-27T00:00:11.355Z,81.84
2019-06-27T00:01:11.345Z,82.75
2019-06-27T00:02:11.355Z,81.94
2019-06-27T00:03:11.332Z,82.18
2019-06-27T00:04:11.308Z,82.89
2019-06-27T00:05:11.298Z,82.95
2019-06-27T00:06:11.284Z,81.98
2019-06-27T00:07:11.275Z,81.78
2019-06-27T00:08:11.282Z,82.39
2019-06-27T00:09:11.255Z,81.98
2019-06-27T00:10:11.253Z,82.28
2019-06-27T00:11:11.231Z,81.98
2019-06-27T00:12:11.215Z,81.88
2019-06-27T00:13:11.207Z,81.88
2019-06-27T00:14:11.209Z,82.39
2019-06-27T00:15:11.183Z,82.28
2019-06-27T00:16:11.195Z,83.09
2019-06-27T00:17:11.160Z,82.28
2019-06-27T00:18:11.150Z,82.89
2019-06-27T00:19:11.151Z,82.53
2019-06-27T00:20:11.128Z,82.99
2019-06-27T00:21:11.115Z,83.19
2019-06-27T00:22:11.128Z,82.73
2019-06-27T00:23:11.093Z,83.03
2019-06-27T00:24:11.079Z,83.23
2019-06-27T00:25:11.087Z,82.83
2019-06-27T00:26:11.061Z,83.23
2019-06-27T00:27:11.048Z,83.23
2019-06-27T00:28:11.049Z,82.93
2019-06-27T00:29:11.021Z,83.54
2019-06-27T00:30:11.012Z,82.93
2019-06-27T00:31:11.023Z,83.03
2019-06-27T00:32:11.070Z,82.83
2019-06-27T00:33:10.979Z,83.44
2019-06-27T00:34:10.975Z,83.54
2019-06-27T00:35:10.956Z,83.44
2019-06-27T00:36:10.951Z,82.42
2019-06-27T00:37:10.955Z,83.03
2019-06-27T00:38:10.927Z,83.03
2019-06-27T00:39:10.911Z,83.44
2019-06-27T00:40:10.919Z,83.54
2019-06-27T00:41:10.904Z,82.83
2019-06-27T00:42:10.875Z,83.50
2019-06-27T00:43:10.883Z,82.62
2019-06-27T00:44:10.858Z,83.13
2019-06-27T00:45:10.856Z,82.83
2019-06-27T00:46:10.837Z,83.13
2019-06-27T00:47:10.822Z,83.23
2019-06-27T00:48:10.812Z,83.19
2019-06-27T00:49:10.826Z,83.19
2019-06-27T00:50:10.788Z,83.19
2019-06-27T00:51:10.776Z,83.23
2019-06-27T00:52:10.788Z,82.93
2019-06-27T00:53:10.752Z,83.44
2019-06-27T00:54:10.743Z,83.23
2019-06-27T00:55:10.746Z,83.13
2019-06-27T00:56:10.721Z,83.29
2019-06-27T00:57:14.531Z,83.09
2019-06-27T00:58:10.727Z,83.40
2019-06-27T00:59:10.684Z,83.50
2019-06-27T01:00:10.683Z,83.09
2019-06-27T01:01:10.660Z,82.89
2019-06-27T01:02:10.653Z,82.28
2019-06-27T01:03:10.640Z,83.09
2019-06-27T01:04:10.648Z,83.50
2019-06-27T01:05:10.644Z,83.50
2019-06-27T01:06:10.603Z,82.89
2019-06-27T01:07:10.595Z,83.50
2019-06-27T01:08:10.584Z,83.50
2019-06-27T01:09:10.572Z,83.29
2019-06-27T01:10:10.571Z,82.79
2019-06-27T01:11:10.583Z,83.70
2019-06-27T01:12:10.539Z,82.99
2019-06-27T01:13:10.527Z,83.60
2019-06-27T01:14:10.515Z,83.40
2019-06-27T01:15:10.507Z,83.29
2019-06-27T01:16:10.503Z,82.89
2019-06-27T01:17:10.491Z,82.89
2019-06-27T01:18:10.471Z,81.27
2019-06-27T01:19:10.461Z,81.48
2019-06-27T01:20:10.449Z,81.62
2019-06-27T01:21:10.439Z,82.22
2019-06-27T01:22:10.452Z,82.02
2019-06-27T01:23:10.416Z,82.53
2019-06-27T01:24:10.412Z,83.03
2019-06-27T01:25:10.391Z,83.44
2019-06-27T01:26:10.387Z,83.13
2019-06-27T01:27:10.394Z,82.73
2019-06-27T01:28:10.368Z,82.83
2019-06-27T01:29:10.344Z,82.83
2019-06-27T01:30:10.336Z,83.33
2019-06-27T01:31:10.324Z,83.03
2019-06-27T01:32:10.312Z,83.13
2019-06-27T01:33:10.311Z,82.93
2019-06-27T01:34:10.306Z,83.03
2019-06-27T01:35:10.279Z,83.44
2019-06-27T01:36:10.287Z,83.54
2019-06-27T01:37:10.256Z,82.02
2019-06-27T01:38:10.259Z,83.13
2019-06-27T01:39:10.231Z,83.74
2019-06-27T01:40:10.231Z,83.13
2019-06-27T01:41:10.211Z,83.13
2019-06-27T01:42:10.241Z,83.54
2019-06-27T01:43:10.190Z,82.93
2019-06-27T01:44:10.199Z,83.64
2019-06-27T01:45:10.175Z,82.93
2019-06-27T01:46:10.183Z,83.03
2019-06-27T01:47:10.140Z,83.13
2019-06-27T01:48:10.131Z,83.03
2019-06-27T01:49:10.120Z,82.02
2019-06-27T01:50:10.117Z,82.93
2019-06-27T01:51:10.095Z,82.83
2019-06-27T01:52:10.118Z,82.73
2019-06-27T01:53:10.069Z,81.82
2019-06-27T01:54:10.063Z,82.83
2019-06-27T01:55:10.060Z,83.13
2019-06-27T01:56:10.043Z,83.44
2019-06-27T01:57:10.028Z,83.50
2019-06-27T01:58:10.032Z,83.44
2019-06-27T01:59:10.009Z,82.79
2019-06-27T02:00:10.086Z,82.99
2019-06-27T02:01:10.000Z,82.99
2019-06-27T02:02:09.975Z,82.73
2019-06-27T02:03:09.955Z,83.09
2019-06-27T02:04:09.959Z,81.82
2019-06-27T02:05:09.935Z,82.28
2019-06-27T02:06:09.927Z,83.23
2019-06-27T02:07:09.929Z,82.99
2019-06-27T02:08:09.903Z,82.89
2019-06-27T02:09:09.887Z,81.98
2019-06-27T02:10:09.898Z,81.98
2019-06-27T02:11:09.867Z,81.88
2019-06-27T02:12:09.867Z,82.99
2019-06-27T02:13:09.871Z,82.28
2019-06-27T02:14:09.868Z,81.48
2019-06-27T02:15:09.823Z,81.88
2019-06-27T02:16:09.823Z,80.97
2019-06-27T02:17:09.801Z,81.92
2019-06-27T02:18:09.799Z,81.98
2019-06-27T02:19:09.791Z,81.82
2019-06-27T02:20:09.783Z,82.32
2019-06-27T02:21:09.755Z,82.53
2019-06-27T02:22:09.769Z,81.88
2019-06-27T02:23:09.734Z,81.41
2019-06-27T02:24:09.739Z,81.62
2019-06-27T02:25:09.711Z,81.85
2019-06-27T02:26:09.700Z,82.06
2019-06-27T02:27:09.691Z,82.16
2019-06-27T02:28:09.683Z,82.06
2019-06-27T02:29:09.663Z,82.56
2019-06-27T02:30:09.668Z,82.06
2019-06-27T02:31:09.656Z,81.85
2019-06-27T02:32:09.637Z,81.85
2019-06-27T02:33:09.626Z,82.10
2019-06-27T02:34:09.631Z,81.99
2019-06-27T02:35:09.602Z,81.29
2019-06-27T02:36:09.613Z,81.99
2019-06-27T02:37:09.580Z,81.39
2019-06-27T02:38:09.573Z,81.69
2019-06-27T02:39:09.551Z,81.90
2019-06-27T02:40:09.556Z,81.49
2019-06-27T02:41:09.531Z,81.99
2019-06-27T02:42:09.544Z,81.29
2019-06-27T02:43:09.504Z,81.29
2019-06-27T02:44:09.493Z,81.59
2019-06-27T02:45:09.491Z,81.59
2019-06-27T02:46:09.483Z,81.99
2019-06-27T02:47:09.468Z,81.39
2019-06-27T02:48:09.447Z,81.99
2019-06-27T02:49:09.452Z,81.52
2019-06-27T02:50:09.452Z,82.20
2019-06-27T02:51:09.416Z,81.43
2019-06-27T02:52:09.428Z,81.93
2019-06-27T02:53:09.398Z,81.73
2019-06-27T02:54:09.400Z,82.03
2019-06-27T02:55:09.376Z,81.93
2019-06-27T02:56:09.379Z,81.83
2019-06-27T02:57:09.344Z,81.43
2019-06-27T02:58:29.140Z,81.93
2019-06-27T02:59:10.325Z,82.24
2019-06-27T03:00:09.316Z,81.83
2019-06-27T03:01:09.309Z,82.14
2019-06-27T03:02:09.307Z,81.43
2019-06-27T03:03:09.286Z,81.73
2019-06-27T03:04:09.283Z,81.73
2019-06-27T03:05:09.280Z,81.52
2019-06-27T03:06:09.245Z,81.12
2019-06-27T03:07:09.276Z,81.83
2019-06-27T03:08:09.237Z,81.43
2019-06-27T03:09:09.211Z,82.14
2019-06-27T03:10:09.241Z,81.63
2019-06-27T03:11:09.190Z,81.83
2019-06-27T03:12:09.196Z,81.63
2019-06-27T03:13:09.200Z,81.63
2019-06-27T03:14:09.176Z,81.52
2019-06-27T03:15:09.144Z,81.73
2019-06-27T03:16:09.151Z,81.97
2019-06-27T03:17:09.144Z,81.46
2019-06-27T03:18:09.111Z,81.87
2019-06-27T03:19:09.097Z,81.57
2019-06-27T03:20:09.107Z,81.57
2019-06-27T03:21:09.098Z,81.46
2019-06-27T03:22:09.095Z,81.46
2019-06-27T03:23:09.071Z,81.63
2019-06-27T03:24:09.068Z,81.26
2019-06-27T03:25:09.047Z,81.73
2019-06-27T03:26:09.028Z,81.73
2019-06-27T03:27:09.007Z,81.77
2019-06-27T03:28:09.007Z,81.46
2019-06-27T03:29:08.987Z,81.46
2019-06-27T03:30:09.093Z,81.57
2019-06-27T03:31:08.976Z,81.67
2019-06-27T03:32:08.963Z,81.97
2019-06-27T03:33:08.999Z,81.87
2019-06-27T03:34:08.956Z,81.67
2019-06-27T03:35:08.932Z,81.16
2019-06-27T03:36:08.935Z,81.67
2019-06-27T03:37:08.896Z,81.46
2019-06-27T03:38:08.917Z,81.57
2019-06-27T03:39:08.871Z,81.16
2019-06-27T03:40:08.914Z,81.97
2019-06-27T03:41:08.855Z,81.77
2019-06-27T03:42:08.855Z,81.71
2019-06-27T03:43:08.852Z,82.31
2019-06-27T03:44:08.821Z,81.77
2019-06-27T03:45:08.817Z,82.07
2019-06-27T03:46:08.812Z,81.57
2019-06-27T03:47:08.790Z,81.71
2019-06-27T03:48:08.795Z,81.10
2019-06-27T03:49:08.759Z,81.77
2019-06-27T03:50:08.754Z,81.37
2019-06-27T03:51:08.735Z,81.06
2019-06-27T03:52:08.739Z,80.86
2019-06-27T03:53:08.721Z,81.60
2019-06-27T03:54:08.715Z,81.57
2019-06-27T03:55:08.707Z,81.71
2019-06-27T03:56:08.694Z,80.90
2019-06-27T03:57:08.668Z,81.10
2019-06-27T03:58:08.710Z,80.96
2019-06-27T03:59:13.166Z,81.20
2019-06-27T04:00:09.657Z,81.40
2019-06-27T04:01:08.623Z,81.40
2019-06-27T04:02:08.612Z,81.20
2019-06-27T04:03:08.619Z,81.30
2019-06-27T04:04:08.638Z,80.69
2019-06-27T04:05:08.577Z,81.91
2019-06-27T04:06:08.574Z,81.60
2019-06-27T04:07:08.556Z,81.60
2019-06-27T04:08:08.544Z,81.60
2019-06-27T04:09:08.530Z,81.40
2019-06-27T04:10:08.539Z,81.71
2019-06-27T04:11:08.523Z,82.21
2019-06-27T04:12:08.500Z,81.71
2019-06-27T04:13:08.487Z,82.15
2019-06-27T04:14:08.475Z,82.01
2019-06-27T04:15:08.462Z,81.81
2019-06-27T04:16:08.455Z,81.71
2019-06-27T04:17:08.475Z,81.60
2019-06-27T04:18:08.435Z,81.74
2019-06-27T04:19:08.431Z,82.25
2019-06-27T04:20:08.422Z,81.91
2019-06-27T04:21:08.422Z,81.50
2019-06-27T04:22:08.443Z,80.90
2019-06-27T04:23:08.374Z,80.90
2019-06-27T04:24:08.393Z,81.54
2019-06-27T04:25:08.397Z,80.90
2019-06-27T04:26:08.345Z,80.69
2019-06-27T04:27:08.338Z,80.73
2019-06-27T04:28:08.337Z,80.79
2019-06-27T04:29:08.318Z,81.44
2019-06-27T04:30:08.299Z,80.93
2019-06-27T04:31:08.297Z,80.99
2019-06-27T04:32:08.288Z,81.44
2019-06-27T04:33:08.269Z,81.64
2019-06-27T04:34:08.255Z,81.74
2019-06-27T04:35:08.254Z,81.44
2019-06-27T04:36:08.267Z,81.64
2019-06-27T04:37:08.235Z,81.74
2019-06-27T04:38:08.203Z,81.44
2019-06-27T04:39:08.196Z,81.54
2019-06-27T04:40:08.192Z,81.54
2019-06-27T04:41:08.188Z,81.74
2019-06-27T04:42:08.191Z,81.99
2019-06-27T04:43:08.150Z,82.15
2019-06-27T04:44:08.137Z,81.60
2019-06-27T04:45:08.127Z,81.91
2019-06-27T04:46:08.114Z,81.10
2019-06-27T04:47:08.127Z,80.49
2019-06-27T04:48:08.089Z,79.98
2019-06-27T04:49:12.962Z,80.73
2019-06-27T04:50:09.075Z,79.78
2019-06-27T04:51:08.066Z,80.59
2019-06-27T04:52:08.044Z,79.82
2019-06-27T04:53:08.048Z,80.53
2019-06-27T04:54:08.043Z,80.12
2019-06-27T04:55:08.009Z,80.63
2019-06-27T04:56:08.000Z,80.02
2019-06-27T04:57:08.034Z,79.78
2019-06-27T04:58:07.978Z,80.22
2019-06-27T04:59:07.973Z,79.88
2019-06-27T05:00:07.968Z,79.78
2019-06-27T05:01:07.943Z,79.72
2019-06-27T05:02:07.958Z,79.82
2019-06-27T05:03:07.931Z,80.63
2019-06-27T05:04:07.938Z,79.38
2019-06-27T05:05:07.898Z,79.47
2019-06-27T05:06:07.948Z,79.88
2019-06-27T05:07:07.874Z,78.46
2019-06-27T05:08:07.863Z,78.33
2019-06-27T05:09:07.855Z,78.53
2019-06-27T05:10:07.855Z,77.45
2019-06-27T05:11:07.846Z,78.06
2019-06-27T05:12:07.838Z,77.45
2019-06-27T05:13:07.814Z,78.83
2019-06-27T05:14:07.797Z,78.53
2019-06-27T05:15:07.804Z,78.63
2019-06-27T05:16:07.814Z,77.92
2019-06-27T05:17:07.760Z,77.61
2019-06-27T05:18:07.759Z,78.33
2019-06-27T05:19:07.738Z,78.69
2019-06-27T05:20:07.726Z,79.60
2019-06-27T05:21:07.714Z,78.49
2019-06-27T05:22:07.737Z,77.58
2019-06-27T05:23:07.705Z,77.34
2019-06-27T05:24:07.678Z,77.88
2019-06-27T05:25:07.670Z,76.12
2019-06-27T05:26:07.658Z,76.16
2019-06-27T05:27:07.745Z,76.87
2019-06-27T05:28:07.645Z,76.77
2019-06-27T05:29:07.629Z,76.56
2019-06-27T05:30:09.977Z,75.85
2019-06-27T05:31:07.602Z,76.56
2019-06-27T05:32:07.590Z,75.96
2019-06-27T05:33:07.610Z,76.26
2019-06-27T05:34:07.565Z,75.76
2019-06-27T05:35:07.554Z,76.67
2019-06-27T05:36:07.560Z,77.31
2019-06-27T05:37:07.546Z,76.16
2019-06-27T05:38:07.523Z,76.26
2019-06-27T05:39:07.525Z,76.46
2019-06-27T05:40:07.499Z,75.76
2019-06-27T05:41:07.485Z,76.56
2019-06-27T05:42:07.474Z,76.06
2019-06-27T05:43:07.470Z,76.97
2019-06-27T05:44:07.485Z,76.26
2019-06-27T05:45:07.445Z,76.26
2019-06-27T05:46:07.431Z,75.85
2019-06-27T05:47:07.421Z,76.80
2019-06-27T05:48:07.421Z,76.80
2019-06-27T05:49:07.402Z,77.01
2019-06-27T05:50:07.405Z,76.29
2019-06-27T05:51:07.374Z,76.87
2019-06-27T05:52:07.362Z,77.68
2019-06-27T05:53:07.349Z,77.98
2019-06-27T05:54:07.365Z,76.97
2019-06-27T05:55:07.353Z,75.76
2019-06-27T05:56:07.335Z,75.62
2019-06-27T05:57:07.334Z,75.62
2019-06-27T05:58:07.298Z,74.40
2019-06-27T05:59:07.291Z,74.91
2019-06-27T06:00:07.280Z,74.40
2019-06-27T06:01:07.278Z,74.24
2019-06-27T06:02:07.258Z,75.01
2019-06-27T06:03:07.238Z,74.84
2019-06-27T06:04:07.231Z,74.51
2019-06-27T06:05:07.215Z,75.65
2019-06-27T06:06:07.208Z,76.93
2019-06-27T06:07:07.210Z,76.23
2019-06-27T06:08:07.193Z,75.92
2019-06-27T06:09:07.170Z,76.73
2019-06-27T06:10:07.158Z,75.82
2019-06-27T06:11:07.153Z,75.52
2019-06-27T06:12:07.151Z,74.51
2019-06-27T06:13:07.139Z,74.30
2019-06-27T06:14:07.134Z,75.35
2019-06-27T06:15:07.109Z,74.81
2019-06-27T06:16:07.097Z,75.42
2019-06-27T06:17:07.104Z,74.64
2019-06-27T06:18:07.073Z,73.22
2019-06-27T06:19:07.062Z,74.04
2019-06-27T06:20:07.059Z,74.98
2019-06-27T06:21:07.033Z,74.68
2019-06-27T06:22:07.023Z,75.49
2019-06-27T06:23:07.014Z,74.98
2019-06-27T06:24:07.013Z,75.08
2019-06-27T06:25:06.992Z,75.49
2019-06-27T06:26:06.989Z,76.60
2019-06-27T06:27:06.967Z,76.29
2019-06-27T06:28:06.954Z,76.70
2019-06-27T06:29:06.941Z,74.48
2019-06-27T06:30:06.942Z,75.18
2019-06-27T06:31:06.927Z,74.48
2019-06-27T06:32:06.914Z,74.68
2019-06-27T06:33:06.903Z,75.08
2019-06-27T06:34:07.038Z,74.77
2019-06-27T06:35:06.889Z,74.48
2019-06-27T06:36:06.874Z,74.17
2019-06-27T06:37:08.182Z,74.48
2019-06-27T06:38:06.863Z,73.66
2019-06-27T06:39:06.841Z,74.48
2019-06-27T06:40:06.833Z,74.57
2019-06-27T06:41:06.829Z,74.57
2019-06-27T06:42:06.814Z,75.89
2019-06-27T06:43:06.795Z,75.79
2019-06-27T06:44:06.774Z,74.95
2019-06-27T06:45:06.769Z,73.43
2019-06-27T06:46:06.812Z,73.53
2019-06-27T06:47:06.752Z,74.54
2019-06-27T06:48:06.749Z,74.54
2019-06-27T06:49:06.720Z,74.44
2019-06-27T06:50:06.705Z,73.73
2019-06-27T06:51:06.693Z,72.48
2019-06-27T06:52:06.701Z,72.81
2019-06-27T06:53:06.670Z,74.24
2019-06-27T06:54:06.677Z,74.33
2019-06-27T06:55:06.649Z,74.84
2019-06-27T06:56:06.641Z,75.35
2019-06-27T06:57:06.626Z,75.25
2019-06-27T06:58:06.625Z,73.93
2019-06-27T06:59:06.753Z,72.58
2019-06-27T07:00:06.634Z,73.53
2019-06-27T07:01:06.582Z,73.73
2019-06-27T07:02:06.571Z,74.30
2019-06-27T07:03:06.554Z,74.20
2019-06-27T07:04:06.578Z,73.59
2019-06-27T07:05:06.709Z,71.97
2019-06-27T07:06:06.542Z,71.57
2019-06-27T07:07:06.527Z,70.56
2019-06-27T07:08:06.509Z,70.86
2019-06-27T07:09:06.490Z,72.38
2019-06-27T07:10:06.478Z,72.17
2019-06-27T07:11:06.486Z,71.06
2019-06-27T07:12:06.453Z,72.78
2019-06-27T07:13:06.451Z,72.88
2019-06-27T07:14:06.438Z,73.96
2019-06-27T07:15:06.425Z,74.47
2019-06-27T07:16:06.426Z,72.04
2019-06-27T07:17:06.409Z,72.44
2019-06-27T07:18:06.389Z,72.75
2019-06-27T07:19:06.403Z,72.34
2019-06-27T07:20:06.367Z,72.44
2019-06-27T07:21:06.355Z,71.44
2019-06-27T07:22:06.369Z,71.03
2019-06-27T07:23:06.334Z,71.33
2019-06-27T07:24:06.322Z,71.13
2019-06-27T07:25:06.320Z,71.13
2019-06-27T07:26:06.327Z,72.34
2019-06-27T07:27:06.286Z,73.46
2019-06-27T07:28:06.290Z,73.36
2019-06-27T07:29:06.262Z,71.84
2019-06-27T07:30:06.280Z,71.44
2019-06-27T07:31:17.203Z,71.60
2019-06-27T07:32:07.230Z,72.61
2019-06-27T07:33:06.214Z,71.00
2019-06-27T07:34:06.222Z,70.09
2019-06-27T07:35:06.194Z,70.89
2019-06-27T07:36:06.182Z,70.49
2019-06-27T07:37:06.177Z,70.93
2019-06-27T07:38:06.190Z,71.44
2019-06-27T07:39:06.153Z,71.33
2019-06-27T07:40:06.154Z,72.01
2019-06-27T07:41:06.126Z,71.33
2019-06-27T07:42:06.114Z,70.89
2019-06-27T07:43:06.108Z,70.18
2019-06-27T07:44:06.102Z,70.09
2019-06-27T07:45:06.082Z,70.29
2019-06-27T07:46:06.095Z,70.93
2019-06-27T07:47:06.057Z,71.09
2019-06-27T07:48:06.046Z,70.49
2019-06-27T07:49:06.042Z,70.09
2019-06-27T07:50:06.028Z,70.18
2019-06-27T07:51:06.030Z,72.21
2019-06-27T07:52:06.006Z,74.19
2019-06-27T07:53:05.998Z,72.75
2019-06-27T07:54:05.982Z,71.94
2019-06-27T07:55:05.977Z,70.49
2019-06-27T07:56:05.957Z,71.00
2019-06-27T07:57:05.970Z,68.84
2019-06-27T07:58:05.934Z,66.42
2019-06-27T07:59:05.922Z,66.52
2019-06-27T08:00:05.917Z,67.06
2019-06-27T08:01:05.897Z,67.83
2019-06-27T08:02:05.911Z,67.73
2019-06-27T08:03:05.880Z,68.84
2019-06-27T08:04:05.870Z,67.70
2019-06-27T08:05:05.858Z,64.98
2019-06-27T08:06:05.954Z,68.17
2019-06-27T08:07:05.837Z,66.25
2019-06-27T08:08:05.835Z,67.23
2019-06-27T08:09:05.809Z,65.15
2019-06-27T08:10:05.817Z,65.72
2019-06-27T08:11:05.786Z,65.32
2019-06-27T08:12:05.777Z,64.72
2019-06-27T08:13:05.812Z,63.10
2019-06-27T08:14:05.758Z,63.20
2019-06-27T08:15:05.992Z,63.90
2019-06-27T08:16:05.772Z,63.90
2019-06-27T08:17:05.721Z,63.60
2019-06-27T08:18:05.720Z,63.20
2019-06-27T08:19:05.732Z,66.02
2019-06-27T08:20:05.694Z,64.01
2019-06-27T08:21:05.685Z,63.50
2019-06-27T08:22:05.662Z,63.87
2019-06-27T08:23:05.658Z,63.17
2019-06-27T08:24:05.646Z,64.58
2019-06-27T08:25:05.645Z,63.85
2019-06-27T08:26:05.634Z,63.45
2019-06-27T08:27:05.617Z,65.93
2019-06-27T08:28:05.599Z,62.30
2019-06-27T08:29:05.599Z,61.30
2019-06-27T08:30:08.224Z,64.79
2019-06-27T08:31:05.558Z,62.78
2019-06-27T08:32:05.566Z,62.07
2019-06-27T08:33:05.562Z,61.37
2019-06-27T08:34:05.530Z,61.04
2019-06-27T08:35:05.518Z,61.14
2019-06-27T08:36:05.502Z,62.02
2019-06-27T08:37:05.494Z,60.51
2019-06-27T08:38:05.535Z,60.00
2019-06-27T08:39:05.490Z,60.21
2019-06-27T08:40:05.466Z,62.42
2019-06-27T08:41:05.450Z,60.21
2019-06-27T08:42:05.440Z,62.12
2019-06-27T08:43:05.431Z,61.38
2019-06-27T08:44:05.433Z,59.67
2019-06-27T08:45:05.455Z,58.57
2019-06-27T08:46:05.397Z,58.27
2019-06-27T08:47:05.389Z,57.90
2019-06-27T08:48:05.378Z,58.53
2019-06-27T08:49:05.366Z,58.50
2019-06-27T08:50:05.368Z,59.94
2019-06-27T08:51:05.343Z,59.63
2019-06-27T08:52:05.351Z,61.54
2019-06-27T08:53:05.317Z,59.56
2019-06-27T08:54:05.323Z,59.56
2019-06-27T08:55:05.295Z,59.66
2019-06-27T08:56:05.300Z,59.59
2019-06-27T08:57:05.294Z,60.67
2019-06-27T08:58:05.263Z,61.47
2019-06-27T08:59:05.255Z,59.59
2019-06-27T09:00:05.237Z,61.20
2019-06-27T09:01:05.226Z,61.17
2019-06-27T09:02:09.017Z,60.27
2019-06-27T09:03:05.227Z,58.93
2019-06-27T09:04:05.203Z,58.05
2019-06-27T09:05:05.187Z,59.76
2019-06-27T09:06:05.177Z,60.09
2019-06-27T09:07:05.161Z,58.55
2019-06-27T09:08:05.158Z,61.34
2019-06-27T09:09:05.145Z,60.81
2019-06-27T09:10:05.125Z,57.39
2019-06-27T09:11:05.114Z,57.70
2019-06-27T09:12:05.106Z,57.72
2019-06-27T09:13:05.099Z,58.05
2019-06-27T09:14:05.089Z,58.65
2019-06-27T09:15:05.090Z,59.56
2019-06-27T09:16:05.079Z,58.53
2019-06-27T09:17:05.061Z,58.93
2019-06-27T09:18:05.034Z,58.70
2019-06-27T09:19:05.026Z,57.90
2019-06-27T09:20:05.054Z,58.27
2019-06-27T09:21:05.040Z,57.44
2019-06-27T09:22:05.002Z,56.63
2019-06-27T09:23:05.009Z,56.66
2019-06-27T09:24:04.970Z,56.06
2019-06-27T09:25:04.954Z,56.69
2019-06-27T09:26:04.982Z,57.19
2019-06-27T09:27:04.930Z,58.50
2019-06-27T09:28:04.949Z,58.00
2019-06-27T09:29:04.912Z,58.09
2019-06-27T09:30:04.904Z,57.77
2019-06-27T09:31:04.894Z,58.75
2019-06-27T09:32:04.912Z,56.34
2019-06-27T09:33:04.866Z,57.44
2019-06-27T09:34:04.858Z,56.03
2019-06-27T09:35:04.845Z,56.81
2019-06-27T09:36:04.856Z,57.01
2019-06-27T09:37:04.826Z,57.89
2019-06-27T09:38:04.823Z,56.28
2019-06-27T09:39:04.798Z,56.56
2019-06-27T09:40:04.789Z,55.15
2019-06-27T09:41:04.777Z,52.67
2019-06-27T09:42:04.766Z,53.64
2019-06-27T09:43:04.752Z,53.37
2019-06-27T09:44:04.756Z,55.47
2019-06-27T09:45:04.725Z,54.25
2019-06-27T09:46:04.720Z,54.15
2019-06-27T09:47:04.714Z,53.45
2019-06-27T09:48:04.699Z,53.32
2019-06-27T09:49:04.706Z,54.05
2019-06-27T09:50:04.709Z,54.25
2019-06-27T09:51:04.659Z,53.45
2019-06-27T09:52:04.658Z,54.45
2019-06-27T09:53:04.638Z,51.92
2019-06-27T09:54:04.628Z,52.52
2019-06-27T09:55:04.633Z,53.12
2019-06-27T09:56:04.618Z,51.54
2019-06-27T09:57:04.618Z,51.34
2019-06-27T09:58:04.595Z,53.34
2019-06-27T09:59:04.594Z,52.07
2019-06-27T10:00:04.558Z,53.00
2019-06-27T10:01:06.182Z,53.09
2019-06-27T10:02:04.539Z,53.27
2019-06-27T10:03:04.532Z,52.97
2019-06-27T10:04:04.514Z,52.75
2019-06-27T10:05:04.533Z,52.64
2019-06-27T10:06:04.509Z,53.14
2019-06-27T10:07:04.482Z,52.52
2019-06-27T10:08:04.473Z,51.51
2019-06-27T10:09:04.458Z,50.69
2019-06-27T10:10:04.450Z,51.29
2019-06-27T10:11:04.450Z,53.09
2019-06-27T10:12:04.426Z,51.27
2019-06-27T10:13:04.427Z,51.49
2019-06-27T10:14:04.417Z,51.17
2019-06-27T10:15:04.398Z,50.64
2019-06-27T10:16:04.380Z,50.84
2019-06-27T10:17:04.377Z,50.64
2019-06-27T10:18:04.358Z,51.22
2019-06-27T10:19:04.345Z,49.82
2019-06-27T10:20:04.356Z,49.02
2019-06-27T10:21:04.334Z,49.02
2019-06-27T10:22:04.314Z,48.49
2019-06-27T10:23:04.301Z,48.42
2019-06-27T10:24:04.300Z,48.92
2019-06-27T10:25:04.280Z,49.02
2019-06-27T10:26:04.285Z,49.22
2019-06-27T10:27:04.263Z,50.12
2019-06-27T10:28:04.269Z,50.52
2019-06-27T10:29:04.239Z,49.72
2019-06-27T10:30:04.227Z,48.61
2019-06-27T10:31:04.233Z,48.92
2019-06-27T10:32:04.228Z,48.82
2019-06-27T10:33:04.203Z,48.79
2019-06-27T10:34:04.178Z,48.69
2019-06-27T10:35:04.174Z,48.60
2019-06-27T10:36:04.181Z,48.39
2019-06-27T10:37:04.162Z,47.77
2019-06-27T10:38:04.137Z,48.77
2019-06-27T10:39:04.123Z,49.79
2019-06-27T10:40:04.110Z,49.29
2019-06-27T10:41:04.117Z,48.37
2019-06-27T10:42:04.096Z,48.37
2019-06-27T10:43:04.110Z,48.57
2019-06-27T10:44:04.066Z,48.07
2019-06-27T10:45:04.056Z,48.17
2019-06-27T10:46:04.062Z,48.60
2019-06-27T10:47:04.042Z,50.49
2019-06-27T10:48:04.029Z,52.27
2019-06-27T10:49:04.013Z,47.97
2019-06-27T10:50:04.005Z,48.07
2019-06-27T10:51:03.989Z,48.55
2019-06-27T10:52:03.985Z,49.05
2019-06-27T10:53:03.977Z,49.25
2019-06-27T10:54:03.961Z,48.52
2019-06-27T10:55:03.952Z,48.32
2019-06-27T10:56:03.929Z,48.52
2019-06-27T10:57:03.954Z,47.63
2019-06-27T10:58:03.920Z,48.02
2019-06-27T10:59:03.897Z,47.13
2019-06-27T11:00:03.887Z,46.43
2019-06-27T11:01:03.898Z,47.13
2019-06-27T11:02:03.867Z,46.92
2019-06-27T11:03:14.950Z,47.72
2019-06-27T11:04:04.856Z,48.85
2019-06-27T11:05:03.854Z,49.82
2019-06-27T11:06:03.815Z,47.45
2019-06-27T11:07:03.813Z,47.53
2019-06-27T11:08:03.810Z,48.20
2019-06-27T11:09:03.795Z,47.10
2019-06-27T11:10:03.778Z,48.70
2019-06-27T11:11:03.783Z,46.91
2019-06-27T11:12:03.769Z,47.80
2019-06-27T11:13:03.753Z,48.30
2019-06-27T11:14:03.751Z,47.00
2019-06-27T11:15:03.719Z,48.30
2019-06-27T11:16:03.702Z,48.10
2019-06-27T11:17:03.708Z,48.90
2019-06-27T11:18:03.692Z,47.58
2019-06-27T11:19:03.678Z,46.61
2019-06-27T11:20:03.687Z,46.61
2019-06-27T11:21:03.660Z,47.00
2019-06-27T11:22:03.657Z,47.00
2019-06-27T11:23:03.633Z,47.33
2019-06-27T11:24:03.622Z,47.80
2019-06-27T11:25:03.618Z,46.70
2019-06-27T11:26:03.619Z,46.33
2019-06-27T11:27:03.605Z,48.93
2019-06-27T11:28:03.583Z,47.03
2019-06-27T11:29:03.565Z,48.72
2019-06-27T11:30:03.561Z,48.82
2019-06-27T11:31:03.558Z,48.63
2019-06-27T11:32:03.542Z,46.70
2019-06-27T11:33:03.518Z,49.22
2019-06-27T11:34:03.517Z,47.50
2019-06-27T11:35:03.496Z,47.10
2019-06-27T11:36:03.510Z,47.68
2019-06-27T11:37:03.483Z,47.16
2019-06-27T11:38:03.489Z,45.76
2019-06-27T11:39:03.451Z,45.78
2019-06-27T11:40:03.434Z,46.19
2019-06-27T11:41:03.426Z,47.28
2019-06-27T11:42:03.419Z,48.08
2019-06-27T11:43:03.405Z,47.66
2019-06-27T11:44:03.409Z,46.28
2019-06-27T11:45:03.390Z,47.58
2019-06-27T11:46:03.457Z,46.88
2019-06-27T11:47:03.370Z,48.68
2019-06-27T11:48:03.353Z,46.16
2019-06-27T11:49:03.343Z,47.16
2019-06-27T11:50:03.355Z,47.26
2019-06-27T11:51:03.319Z,46.66
2019-06-27T11:52:03.338Z,47.75
2019-06-27T11:53:03.299Z,46.76
2019-06-27T11:54:03.286Z,46.24
2019-06-27T11:55:03.270Z,45.74
2019-06-27T11:56:03.379Z,45.22
2019-06-27T11:57:03.252Z,45.72
2019-06-27T11:58:03.242Z,44.92
2019-06-27T11:59:03.231Z,45.32
2019-06-27T12:00:03.238Z,44.35
2019-06-27T12:01:03.263Z,43.95
2019-06-27T12:02:03.198Z,45.26
2019-06-27T12:03:03.186Z,44.76
2019-06-27T12:04:03.169Z,47.66
2019-06-27T12:05:03.165Z,46.84
2019-06-27T12:06:03.152Z,48.93
2019-06-27T12:07:03.155Z,46.22
2019-06-27T12:08:03.126Z,45.42
2019-06-27T12:09:03.134Z,46.81
2019-06-27T12:10:03.193Z,46.69
2019-06-27T12:11:03.095Z,45.40
2019-06-27T12:12:03.082Z,45.78
2019-06-27T12:13:03.084Z,44.88
2019-06-27T12:14:03.074Z,43.68
2019-06-27T12:15:03.064Z,44.50
2019-06-27T12:16:03.042Z,44.90
2019-06-27T12:17:03.030Z,45.40
2019-06-27T12:18:03.034Z,45.40
2019-06-27T12:19:03.022Z,47.39
2019-06-27T12:20:02.997Z,46.47
2019-06-27T12:21:05.868Z,46.84
2019-06-27T12:22:02.980Z,47.44
2019-06-27T12:23:02.979Z,44.93
2019-06-27T12:24:02.950Z,43.96
2019-06-27T12:25:02.955Z,44.16
2019-06-27T12:26:02.950Z,43.37
2019-06-27T12:27:02.918Z,43.86
2019-06-27T12:28:02.918Z,44.96
2019-06-27T12:29:02.893Z,43.46
2019-06-27T12:30:02.894Z,43.49
2019-06-27T12:31:16.024Z,44.98
2019-06-27T12:32:03.862Z,44.90
2019-06-27T12:33:02.855Z,47.29
2019-06-27T12:34:07.257Z,45.00
2019-06-27T12:35:02.833Z,45.57
2019-06-27T12:36:02.835Z,44.60
2019-06-27T12:37:02.841Z,45.60
2019-06-27T12:38:02.794Z,48.26
2019-06-27T12:39:02.791Z,44.78
2019-06-27T12:40:02.803Z,45.26
2019-06-27T12:41:02.774Z,43.57
2019-06-27T12:42:02.785Z,43.66
2019-06-27T12:43:02.767Z,44.08
2019-06-27T12:44:02.743Z,44.78
2019-06-27T12:45:02.725Z,45.37
2019-06-27T12:46:02.712Z,45.48
2019-06-27T12:47:02.698Z,47.44
2019-06-27T12:48:07.337Z,45.53
2019-06-27T12:49:02.678Z,48.39
2019-06-27T12:50:03.353Z,43.82
2019-06-27T12:51:02.705Z,45.11
2019-06-27T12:52:02.656Z,43.80